createdAt,value
2022-09-17T00:01:42.737Z,8.32
2022-09-17T00:06:39.170Z,5.68
2022-09-17T00:11:39.308Z,9.68
2022-09-17T00:16:41.754Z,14.18
2022-09-17T00:21:38.184Z,12.23
2022-09-17T00:26:35.194Z,10.45
2022-09-17T00:31:32.649Z,11.00
2022-09-17T00:36:29.329Z,13.57
2022-09-17T00:41:29.597Z,11.43
2022-09-17T00:46:33.473Z,13.70
2022-09-17T00:51:47.762Z,17.25
2022-09-17T00:56:44.368Z,9.57
2022-09-17T01:01:40.840Z,13.27
2022-09-17T01:06:52.100Z,13.57
2022-09-17T01:12:23.199Z,22.70
2022-09-17T01:17:29.967Z,11.00
2022-09-17T01:22:52.059Z,13.85
2022-09-17T01:28:01.982Z,19.05
2022-09-17T01:33:12.499Z,19.48
2022-09-17T01:38:32.874Z,24.05
2022-09-17T01:43:48.422Z,11.75
2022-09-17T01:48:49.656Z,16.17
2022-09-17T01:53:53.355Z,26.10
2022-09-17T01:58:56.532Z,20.45
2022-09-17T02:04:49.057Z,19.27
2022-09-17T02:09:53.554Z,20.10
2022-09-17T02:14:53.998Z,16.13
2022-09-17T02:19:50.813Z,20.58
2022-09-17T02:25:00.618Z,19.48
2022-09-17T02:29:56.994Z,16.52
2022-09-17T02:34:53.505Z,9.57
2022-09-17T02:39:49.962Z,13.15
2022-09-17T02:44:59.218Z,21.98
2022-09-17T02:50:14.806Z,21.85
2022-09-17T02:55:20.682Z,16.08
2022-09-17T03:00:20.805Z,21.95
2022-09-17T03:05:20.237Z,17.35
2022-09-17T03:10:17.235Z,20.20
2022-09-17T03:15:13.689Z,19.05
2022-09-17T03:20:10.192Z,14.07
2022-09-17T03:25:07.034Z,9.70
2022-09-17T03:30:04.624Z,20.45
2022-09-17T03:35:01.023Z,18.63
2022-09-17T03:39:57.365Z,10.88
2022-09-17T03:44:53.708Z,22.80
2022-09-17T03:49:50.104Z,19.50
2022-09-17T03:54:46.419Z,17.63
2022-09-17T03:59:42.734Z,17.40
2022-09-17T04:04:39.068Z,12.50
2022-09-17T04:09:35.552Z,19.35
2022-09-17T04:14:31.961Z,17.17
2022-09-17T04:19:28.446Z,23.40
2022-09-17T04:24:24.789Z,18.67
2022-09-17T04:29:21.154Z,17.27
2022-09-17T04:34:17.472Z,16.42
2022-09-17T04:39:13.806Z,22.73
2022-09-17T04:44:10.139Z,18.20
2022-09-17T04:49:06.625Z,21.90
2022-09-17T04:54:03.018Z,9.15
2022-09-17T04:58:59.386Z,13.15
2022-09-17T05:03:55.709Z,13.45
2022-09-17T05:08:51.999Z,17.45
2022-09-17T05:13:48.408Z,21.30
2022-09-17T05:18:45.186Z,16.15
2022-09-17T05:23:41.583Z,15.10
2022-09-17T05:28:37.966Z,22.75
2022-09-17T05:33:34.938Z,16.98
2022-09-17T05:38:31.321Z,20.33
2022-09-17T05:43:27.814Z,15.15
2022-09-17T05:48:24.244Z,15.77
2022-09-17T05:53:21.878Z,17.13
2022-09-17T05:58:19.645Z,17.73
2022-09-17T06:03:19.077Z,19.43
2022-09-17T06:08:15.532Z,14.85
2022-09-17T06:13:11.929Z,23.13
2022-09-17T06:18:08.280Z,19.42
2022-09-17T06:23:04.720Z,20.80
2022-09-17T06:28:03.006Z,14.95
2022-09-17T06:33:00.230Z,18.00
2022-09-17T06:37:56.638Z,19.33
2022-09-17T06:42:58.039Z,19.20
2022-09-17T06:47:54.586Z,10.15
2022-09-17T06:52:52.750Z,9.02
2022-09-17T06:57:49.326Z,8.05
2022-09-17T07:02:55.434Z,14.80
2022-09-17T07:07:52.638Z,18.02
2022-09-17T07:12:50.133Z,11.48
2022-09-17T07:17:46.879Z,10.80
2022-09-17T07:22:43.635Z,10.73
2022-09-17T07:27:40.155Z,7.45
2022-09-17T07:32:36.500Z,10.55
2022-09-17T07:37:32.844Z,10.27
2022-09-17T07:42:29.252Z,14.13
2022-09-17T07:47:25.643Z,8.75
2022-09-17T07:52:22.018Z,11.75
2022-09-17T07:57:18.324Z,6.13
2022-09-17T08:02:14.847Z,14.70
2022-09-17T08:07:13.073Z,13.02
2022-09-17T08:12:09.464Z,6.72
2022-09-17T08:17:08.270Z,8.13
2022-09-17T08:22:04.630Z,11.68
2022-09-17T08:27:00.962Z,13.45
2022-09-17T08:31:57.280Z,12.35
2022-09-17T08:36:53.641Z,6.68
2022-09-17T08:42:11.545Z,7.70
2022-09-17T08:47:16.148Z,10.40
2022-09-17T08:52:28.549Z,12.43
2022-09-17T08:57:36.965Z,8.63
2022-09-17T09:02:48.901Z,12.02
2022-09-17T09:07:52.047Z,3.72
2022-09-17T09:12:51.282Z,9.05
2022-09-17T09:17:49.305Z,10.30
2022-09-17T09:22:48.859Z,6.25
2022-09-17T09:27:54.597Z,2.78
2022-09-17T09:33:11.817Z,5.00
2022-09-17T09:38:40.709Z,4.67
2022-09-17T09:44:05.013Z,4.47
2022-09-17T09:49:19.837Z,2.45
2022-09-17T09:54:42.577Z,3.60
2022-09-17T09:59:41.254Z,3.17
2022-09-17T10:04:37.661Z,5.18
2022-09-17T10:09:37.055Z,4.55
2022-09-17T10:14:36.620Z,7.15
2022-09-17T10:19:33.007Z,5.60
2022-09-17T10:24:33.277Z,4.22
2022-09-17T10:29:30.173Z,2.28
2022-09-17T10:34:30.129Z,2.75
2022-09-17T10:39:34.269Z,6.47
2022-09-17T10:44:36.719Z,2.97
2022-09-17T10:49:47.508Z,1.67
2022-09-17T10:55:14.753Z,3.15
2022-09-17T11:00:18.395Z,9.33
2022-09-17T11:05:29.768Z,8.60
2022-09-17T11:10:41.933Z,3.15
2022-09-17T11:15:59.711Z,9.60
2022-09-17T11:20:58.915Z,7.05
2022-09-17T11:26:13.878Z,3.50
2022-09-17T11:31:39.595Z,4.65
2022-09-17T11:36:57.062Z,1.15
2022-09-17T11:41:56.264Z,1.07
2022-09-17T11:47:10.116Z,4.57
2022-09-17T11:52:14.794Z,2.53
2022-09-17T11:57:16.847Z,5.15
2022-09-17T12:02:39.478Z,3.75
2022-09-17T12:07:45.694Z,3.38
2022-09-17T12:12:52.554Z,3.75
2022-09-17T12:18:30.705Z,2.30
2022-09-17T12:23:59.146Z,3.40
2022-09-17T12:29:08.373Z,1.60
2022-09-17T12:34:26.111Z,3.03
2022-09-17T12:39:38.812Z,5.68
2022-09-17T12:44:40.965Z,2.35
2022-09-17T12:50:08.542Z,1.98
2022-09-17T12:55:20.153Z,2.72
2022-09-17T13:00:17.103Z,4.72
2022-09-17T13:05:35.819Z,3.17
2022-09-17T13:10:47.236Z,2.03
2022-09-17T13:15:52.819Z,3.25
2022-09-17T13:20:55.175Z,3.53
2022-09-17T13:25:55.254Z,2.28
2022-09-17T13:31:00.194Z,2.60
2022-09-17T13:35:56.886Z,8.35
2022-09-17T13:41:21.289Z,5.45
2022-09-17T13:46:23.525Z,0.32
2022-09-17T13:51:32.045Z,18.38
2022-09-17T14:01:50.988Z,7.90
2022-09-17T14:06:51.436Z,1.60
2022-09-17T14:11:47.774Z,3.67
2022-09-17T14:16:45.924Z,4.47
2022-09-17T14:21:57.200Z,4.43
2022-09-17T14:27:00.309Z,7.43
2022-09-17T14:31:58.150Z,5.97
2022-09-17T14:36:55.947Z,5.03
2022-09-17T14:41:54.626Z,4.53
2022-09-17T14:46:56.767Z,6.78
2022-09-17T14:51:54.994Z,5.63
2022-09-17T14:57:23.598Z,8.20
2022-09-17T15:02:38.340Z,4.72
2022-09-17T15:07:34.726Z,7.15
2022-09-17T15:12:31.198Z,6.13
2022-09-17T15:17:27.783Z,6.90
2022-09-17T15:22:29.518Z,9.07
2022-09-17T15:27:30.779Z,2.45
2022-09-17T15:32:27.690Z,5.38
2022-09-17T15:37:28.198Z,7.10
2022-09-17T15:42:29.660Z,5.47
2022-09-17T15:47:38.796Z,6.45
2022-09-17T15:52:35.246Z,4.45
2022-09-17T15:57:32.674Z,7.65
2022-09-17T16:02:31.494Z,7.97
2022-09-17T16:07:30.313Z,5.95
2022-09-17T16:12:28.969Z,3.90
2022-09-17T16:17:28.147Z,4.15
2022-09-17T16:22:26.428Z,3.72
2022-09-17T16:37:17.912Z,7.30
2022-09-17T16:42:14.376Z,5.05
2022-09-17T16:47:10.680Z,10.55
2022-09-17T16:52:07.051Z,7.78
2022-09-17T16:57:03.433Z,10.90
2022-09-17T17:02:00.056Z,4.18
2022-09-17T17:06:56.377Z,6.38
2022-09-17T17:11:52.660Z,8.90
2022-09-17T17:16:48.980Z,7.78
2022-09-17T17:21:47.331Z,7.28
2022-09-17T17:31:40.345Z,5.15
2022-09-17T17:36:36.697Z,7.82
2022-09-17T17:41:33.041Z,6.78
2022-09-17T17:46:29.450Z,5.28
2022-09-17T17:51:27.156Z,6.32
2022-09-17T17:56:23.545Z,7.10
2022-09-17T18:01:22.632Z,4.80
2022-09-17T18:06:18.951Z,7.85
2022-09-17T18:11:15.296Z,6.82
2022-09-17T18:16:14.029Z,7.63
2022-09-17T18:21:15.927Z,4.82
2022-09-17T18:26:14.952Z,10.40
2022-09-17T18:31:19.792Z,4.63
2022-09-17T18:36:16.196Z,7.60
2022-09-17T18:41:13.487Z,11.63
2022-09-17T18:46:09.863Z,7.88
2022-09-17T18:51:12.319Z,4.85
2022-09-17T18:56:16.010Z,2.97
2022-09-17T19:01:12.494Z,5.38
2022-09-17T19:06:11.204Z,8.20
2022-09-17T19:11:07.909Z,4.25
2022-09-17T19:16:05.685Z,5.97
2022-09-17T19:21:07.943Z,4.07
2022-09-17T19:26:06.702Z,5.72
2022-09-17T19:31:07.875Z,5.53
2022-09-17T19:36:09.401Z,4.18
2022-09-17T19:41:09.948Z,8.18
2022-09-17T19:46:11.628Z,3.15
2022-09-17T19:51:08.012Z,3.83
2022-09-17T19:56:04.677Z,7.43
2022-09-17T20:01:01.045Z,4.32
2022-09-17T20:06:02.739Z,4.72
2022-09-17T20:11:07.329Z,6.30
2022-09-17T20:16:05.312Z,6.32
2022-09-17T20:21:16.641Z,3.78
2022-09-17T20:26:14.028Z,9.48
2022-09-17T20:31:13.428Z,6.00
2022-09-17T20:36:16.400Z,9.70
2022-09-17T20:41:14.007Z,6.65
2022-09-17T20:46:12.276Z,8.23
2022-09-17T20:51:12.917Z,8.80
2022-09-17T20:56:15.236Z,5.25
2022-09-17T21:01:15.339Z,6.32
2022-09-17T21:06:36.044Z,12.48
2022-09-17T21:11:32.710Z,8.52
2022-09-17T21:16:29.638Z,6.45
2022-09-17T21:21:26.152Z,10.07
2022-09-17T21:26:24.140Z,10.82
2022-09-17T21:31:23.115Z,11.30
2022-09-17T21:36:23.812Z,5.82
2022-09-17T21:41:21.291Z,6.18
2022-09-17T21:46:22.717Z,10.23
2022-09-17T21:51:22.118Z,4.82
2022-09-17T21:56:19.795Z,5.57
2022-09-17T22:01:19.579Z,9.10
2022-09-17T22:06:18.970Z,7.53
2022-09-17T22:11:18.101Z,10.43
2022-09-17T22:16:14.452Z,11.20
2022-09-17T22:21:15.977Z,6.60
2022-09-17T22:26:12.310Z,10.10
2022-09-17T22:31:11.750Z,13.10
2022-09-17T22:36:13.829Z,11.23
2022-09-17T22:41:15.505Z,7.90
2022-09-17T22:46:23.711Z,5.78
2022-09-17T22:51:20.377Z,7.60
2022-09-17T22:56:19.620Z,7.03
2022-09-17T23:01:18.442Z,12.02
2022-09-17T23:06:21.692Z,13.45
2022-09-17T23:11:26.248Z,6.15
2022-09-17T23:16:22.747Z,10.10
2022-09-17T23:21:19.933Z,3.35
2022-09-17T23:26:24.322Z,5.38
2022-09-17T23:31:28.314Z,7.13
2022-09-17T23:36:27.423Z,8.07
2022-09-17T23:41:30.489Z,11.43
2022-09-17T23:46:29.194Z,11.63
2022-09-17T23:51:27.741Z,6.82
